sensor_id;sensor_type;location;lat;lon;timestamp;temperature;humidity
58339;DHT22;68636;52.704;6.536;2023-08-12T00:00:59;19.50;99.90
58339;DHT22;68636;52.704;6.536;2023-08-12T00:03:25;19.40;99.90
58339;DHT22;68636;52.704;6.536;2023-08-12T00:05:52;19.40;99.90
58339;DHT22;68636;52.704;6.536;2023-08-12T00:08:17;19.40;99.90
58339;DHT22;68636;52.704;6.536;2023-08-12T00:10:43;19.40;99.90
58339;DHT22;68636;52.704;6.536;2023-08-12T00:13:09;19.40;99.90
58339;DHT22;68636;52.704;6.536;2023-08-12T00:15:35;19.40;99.90
58339;DHT22;68636;52.704;6.536;2023-08-12T00:18:00;19.40;99.90
58339;DHT22;68636;52.704;6.536;2023-08-12T00:20:29;19.40;99.90
58339;DHT22;68636;52.704;6.536;2023-08-12T00:22:55;19.40;99.90
58339;DHT22;68636;52.704;6.536;2023-08-12T00:25:21;19.40;99.90
58339;DHT22;68636;52.704;6.536;2023-08-12T00:27:46;19.40;99.90
58339;DHT22;68636;52.704;6.536;2023-08-12T00:30:12;19.40;99.90
58339;DHT22;68636;52.704;6.536;2023-08-12T00:32:38;19.40;99.90
58339;DHT22;68636;52.704;6.536;2023-08-12T00:35:04;19.40;99.90
58339;DHT22;68636;52.704;6.536;2023-08-12T00:37:30;19.40;99.90
58339;DHT22;68636;52.704;6.536;2023-08-12T00:39:56;19.30;99.90
58339;DHT22;68636;52.704;6.536;2023-08-12T00:42:22;19.30;99.90
58339;DHT22;68636;52.704;6.536;2023-08-12T00:44:47;19.30;99.90
58339;DHT22;68636;52.704;6.536;2023-08-12T00:47:13;19.30;99.90
58339;DHT22;68636;52.704;6.536;2023-08-12T00:49:40;19.30;99.90
58339;DHT22;68636;52.704;6.536;2023-08-12T00:52:06;19.30;99.90
58339;DHT22;68636;52.704;6.536;2023-08-12T00:54:32;19.30;99.90
58339;DHT22;68636;52.704;6.536;2023-08-12T00:56:58;19.30;99.90
58339;DHT22;68636;52.704;6.536;2023-08-12T00:59:24;19.30;99.90
58339;DHT22;68636;52.704;6.536;2023-08-12T01:01:50;19.20;99.90
58339;DHT22;68636;52.704;6.536;2023-08-12T01:04:16;19.20;99.90
58339;DHT22;68636;52.704;6.536;2023-08-12T01:06:42;19.10;99.90
58339;DHT22;68636;52.704;6.536;2023-08-12T01:09:08;19.20;99.90
58339;DHT22;68636;52.704;6.536;2023-08-12T01:16:37;19.20;99.90
58339;DHT22;68636;52.704;6.536;2023-08-12T01:19:06;19.20;99.90
58339;DHT22;68636;52.704;6.536;2023-08-12T01:21:36;19.20;99.90
58339;DHT22;68636;52.704;6.536;2023-08-12T01:24:06;19.20;99.90
58339;DHT22;68636;52.704;6.536;2023-08-12T01:26:32;19.10;99.90
58339;DHT22;68636;52.704;6.536;2023-08-12T01:28:58;19.10;99.90
58339;DHT22;68636;52.704;6.536;2023-08-12T01:31:32;19.10;99.90
58339;DHT22;68636;52.704;6.536;2023-08-12T01:34:12;19.10;99.90
58339;DHT22;68636;52.704;6.536;2023-08-12T01:36:46;19.10;99.90
58339;DHT22;68636;52.704;6.536;2023-08-12T01:39:17;19.00;99.90
58339;DHT22;68636;52.704;6.536;2023-08-12T01:41:45;19.00;99.90
58339;DHT22;68636;52.704;6.536;2023-08-12T01:44:11;19.00;99.90
58339;DHT22;68636;52.704;6.536;2023-08-12T01:46:37;18.90;99.90
58339;DHT22;68636;52.704;6.536;2023-08-12T01:49:03;18.90;99.90
58339;DHT22;68636;52.704;6.536;2023-08-12T01:51:29;18.90;99.90
58339;DHT22;68636;52.704;6.536;2023-08-12T01:53:55;18.80;99.90
58339;DHT22;68636;52.704;6.536;2023-08-12T01:56:21;18.80;99.90
58339;DHT22;68636;52.704;6.536;2023-08-12T01:58:46;18.80;99.90
58339;DHT22;68636;52.704;6.536;2023-08-12T02:01:12;18.80;99.90
58339;DHT22;68636;52.704;6.536;2023-08-12T02:03:38;18.80;99.90
58339;DHT22;68636;52.704;6.536;2023-08-12T02:06:04;18.80;99.90
58339;DHT22;68636;52.704;6.536;2023-08-12T02:08:30;18.70;99.90
58339;DHT22;68636;52.704;6.536;2023-08-12T02:10:55;18.70;99.90
58339;DHT22;68636;52.704;6.536;2023-08-12T02:13:21;18.70;99.90
58339;DHT22;68636;52.704;6.536;2023-08-12T02:15:47;18.70;99.90
58339;DHT22;68636;52.704;6.536;2023-08-12T02:18:12;18.70;99.90
58339;DHT22;68636;52.704;6.536;2023-08-12T02:20:40;18.70;99.90
58339;DHT22;68636;52.704;6.536;2023-08-12T02:23:06;18.70;99.90
58339;DHT22;68636;52.704;6.536;2023-08-12T02:25:32;18.70;99.90
58339;DHT22;68636;52.704;6.536;2023-08-12T02:27:58;18.70;99.90
58339;DHT22;68636;52.704;6.536;2023-08-12T02:30:24;18.70;99.90
58339;DHT22;68636;52.704;6.536;2023-08-12T02:32:49;18.80;99.90
58339;DHT22;68636;52.704;6.536;2023-08-12T02:35:17;18.80;99.90
58339;DHT22;68636;52.704;6.536;2023-08-12T02:37:43;18.80;99.90
58339;DHT22;68636;52.704;6.536;2023-08-12T02:40:09;18.80;99.90
58339;DHT22;68636;52.704;6.536;2023-08-12T02:42:36;18.70;99.90
58339;DHT22;68636;52.704;6.536;2023-08-12T02:45:02;18.70;99.90
58339;DHT22;68636;52.704;6.536;2023-08-12T02:47:28;18.70;99.90
58339;DHT22;68636;52.704;6.536;2023-08-12T02:49:53;18.70;99.90
58339;DHT22;68636;52.704;6.536;2023-08-12T02:52:19;18.70;99.90
58339;DHT22;68636;52.704;6.536;2023-08-12T02:54:45;18.70;99.90
58339;DHT22;68636;52.704;6.536;2023-08-12T02:57:10;18.70;99.90
58339;DHT22;68636;52.704;6.536;2023-08-12T02:59:36;18.70;99.90
58339;DHT22;68636;52.704;6.536;2023-08-12T03:02:02;18.70;99.90
58339;DHT22;68636;52.704;6.536;2023-08-12T03:04:29;18.60;99.90
58339;DHT22;68636;52.704;6.536;2023-08-12T03:06:55;18.60;99.90
58339;DHT22;68636;52.704;6.536;2023-08-12T03:09:20;18.60;99.90
58339;DHT22;68636;52.704;6.536;2023-08-12T03:11:46;18.70;99.90
58339;DHT22;68636;52.704;6.536;2023-08-12T03:14:12;18.70;99.90
58339;DHT22;68636;52.704;6.536;2023-08-12T03:16:38;18.70;99.90
58339;DHT22;68636;52.704;6.536;2023-08-12T03:19:04;18.70;99.90
58339;DHT22;68636;52.704;6.536;2023-08-12T03:21:29;18.80;99.90
58339;DHT22;68636;52.704;6.536;2023-08-12T03:23:56;18.80;99.90
58339;DHT22;68636;52.704;6.536;2023-08-12T03:26:22;18.80;99.90
58339;DHT22;68636;52.704;6.536;2023-08-12T03:28:47;18.90;99.90
58339;DHT22;68636;52.704;6.536;2023-08-12T03:31:13;18.90;99.90
58339;DHT22;68636;52.704;6.536;2023-08-12T03:33:39;18.90;99.90
58339;DHT22;68636;52.704;6.536;2023-08-12T03:36:04;18.90;99.90
58339;DHT22;68636;52.704;6.536;2023-08-12T03:38:30;19.00;99.90
58339;DHT22;68636;52.704;6.536;2023-08-12T03:40:56;19.00;99.90
58339;DHT22;68636;52.704;6.536;2023-08-12T03:43:22;19.00;99.90
58339;DHT22;68636;52.704;6.536;2023-08-12T03:45:47;19.00;99.90
58339;DHT22;68636;52.704;6.536;2023-08-12T03:48:14;19.00;99.90
58339;DHT22;68636;52.704;6.536;2023-08-12T03:50:41;19.00;99.90
58339;DHT22;68636;52.704;6.536;2023-08-12T03:53:07;19.10;99.90
58339;DHT22;68636;52.704;6.536;2023-08-12T03:55:34;19.10;99.90
58339;DHT22;68636;52.704;6.536;2023-08-12T03:58:00;19.10;99.90
58339;DHT22;68636;52.704;6.536;2023-08-12T04:00:26;19.10;99.90
58339;DHT22;68636;52.704;6.536;2023-08-12T04:02:52;19.10;99.90
58339;DHT22;68636;52.704;6.536;2023-08-12T04:05:17;19.10;99.90
58339;DHT22;68636;52.704;6.536;2023-08-12T04:07:43;19.10;99.90
58339;DHT22;68636;52.704;6.536;2023-08-12T04:10:09;19.10;99.90
58339;DHT22;68636;52.704;6.536;2023-08-12T04:12:35;19.10;99.90
58339;DHT22;68636;52.704;6.536;2023-08-12T04:15:01;19.10;99.90
58339;DHT22;68636;52.704;6.536;2023-08-12T04:17:30;19.00;99.90
58339;DHT22;68636;52.704;6.536;2023-08-12T04:19:56;19.00;99.90
58339;DHT22;68636;52.704;6.536;2023-08-12T04:22:21;19.10;99.90
58339;DHT22;68636;52.704;6.536;2023-08-12T04:24:47;19.00;99.90
58339;DHT22;68636;52.704;6.536;2023-08-12T04:27:13;19.00;99.90
58339;DHT22;68636;52.704;6.536;2023-08-12T04:29:38;19.00;99.90
58339;DHT22;68636;52.704;6.536;2023-08-12T04:32:04;19.00;99.90
58339;DHT22;68636;52.704;6.536;2023-08-12T04:34:30;19.00;99.90
58339;DHT22;68636;52.704;6.536;2023-08-12T04:36:56;19.00;99.90
58339;DHT22;68636;52.704;6.536;2023-08-12T04:39:22;19.00;99.90
58339;DHT22;68636;52.704;6.536;2023-08-12T04:41:48;19.00;99.90
58339;DHT22;68636;52.704;6.536;2023-08-12T04:44:13;18.90;99.90
58339;DHT22;68636;52.704;6.536;2023-08-12T04:46:39;18.90;99.90
58339;DHT22;68636;52.704;6.536;2023-08-12T04:49:05;18.90;99.90
58339;DHT22;68636;52.704;6.536;2023-08-12T04:51:31;18.90;99.90
58339;DHT22;68636;52.704;6.536;2023-08-12T04:53:57;19.00;99.90
58339;DHT22;68636;52.704;6.536;2023-08-12T04:56:23;18.90;99.90
58339;DHT22;68636;52.704;6.536;2023-08-12T04:58:50;18.90;99.90
58339;DHT22;68636;52.704;6.536;2023-08-12T05:01:15;18.90;99.90
58339;DHT22;68636;52.704;6.536;2023-08-12T05:03:41;18.90;99.90
58339;DHT22;68636;52.704;6.536;2023-08-12T05:06:07;18.90;99.90
58339;DHT22;68636;52.704;6.536;2023-08-12T05:08:32;18.90;99.90
58339;DHT22;68636;52.704;6.536;2023-08-12T05:10:58;18.90;99.90
58339;DHT22;68636;52.704;6.536;2023-08-12T05:13:24;19.00;99.90
58339;DHT22;68636;52.704;6.536;2023-08-12T05:15:50;19.00;99.90
58339;DHT22;68636;52.704;6.536;2023-08-12T05:18:15;19.10;99.90
58339;DHT22;68636;52.704;6.536;2023-08-12T05:20:42;19.20;99.90
58339;DHT22;68636;52.704;6.536;2023-08-12T05:23:08;19.20;99.90
58339;DHT22;68636;52.704;6.536;2023-08-12T05:25:34;19.30;99.90
58339;DHT22;68636;52.704;6.536;2023-08-12T05:27:59;19.40;99.90
58339;DHT22;68636;52.704;6.536;2023-08-12T05:30:25;19.40;99.90
58339;DHT22;68636;52.704;6.536;2023-08-12T05:32:51;19.50;99.90
58339;DHT22;68636;52.704;6.536;2023-08-12T05:35:17;19.60;99.90
58339;DHT22;68636;52.704;6.536;2023-08-12T05:37:42;19.70;99.90
58339;DHT22;68636;52.704;6.536;2023-08-12T05:40:09;19.80;99.90
58339;DHT22;68636;52.704;6.536;2023-08-12T05:42:35;19.80;99.90
58339;DHT22;68636;52.704;6.536;2023-08-12T05:45:02;19.90;99.90
58339;DHT22;68636;52.704;6.536;2023-08-12T05:47:28;20.00;99.90
58339;DHT22;68636;52.704;6.536;2023-08-12T05:49:53;20.00;99.90
58339;DHT22;68636;52.704;6.536;2023-08-12T05:52:19;20.10;99.90
58339;DHT22;68636;52.704;6.536;2023-08-12T05:54:45;20.30;99.90
58339;DHT22;68636;52.704;6.536;2023-08-12T05:57:10;20.50;99.90
58339;DHT22;68636;52.704;6.536;2023-08-12T05:59:36;20.70;99.90
58339;DHT22;68636;52.704;6.536;2023-08-12T06:02:02;20.90;99.90
58339;DHT22;68636;52.704;6.536;2023-08-12T06:04:27;21.00;99.90
58339;DHT22;68636;52.704;6.536;2023-08-12T06:06:53;21.00;99.90
58339;DHT22;68636;52.704;6.536;2023-08-12T06:09:19;21.10;99.90
58339;DHT22;68636;52.704;6.536;2023-08-12T06:11:44;21.00;99.90
58339;DHT22;68636;52.704;6.536;2023-08-12T06:14:10;21.00;99.90
58339;DHT22;68636;52.704;6.536;2023-08-12T06:16:36;20.90;99.90
58339;DHT22;68636;52.704;6.536;2023-08-12T06:19:01;20.90;99.90
58339;DHT22;68636;52.704;6.536;2023-08-12T06:21:27;20.80;99.90
58339;DHT22;68636;52.704;6.536;2023-08-12T06:23:53;20.80;99.90
58339;DHT22;68636;52.704;6.536;2023-08-12T06:26:19;20.80;99.90
58339;DHT22;68636;52.704;6.536;2023-08-12T06:28:44;20.80;99.90
58339;DHT22;68636;52.704;6.536;2023-08-12T06:31:10;20.80;99.90
58339;DHT22;68636;52.704;6.536;2023-08-12T06:33:36;20.80;99.90
58339;DHT22;68636;52.704;6.536;2023-08-12T06:36:02;20.90;99.90
58339;DHT22;68636;52.704;6.536;2023-08-12T06:38:27;20.90;99.90
58339;DHT22;68636;52.704;6.536;2023-08-12T06:40:54;20.90;99.90
58339;DHT22;68636;52.704;6.536;2023-08-12T06:43:20;20.90;99.90
58339;DHT22;68636;52.704;6.536;2023-08-12T06:45:46;20.90;99.90
58339;DHT22;68636;52.704;6.536;2023-08-12T06:48:11;20.90;99.90
58339;DHT22;68636;52.704;6.536;2023-08-12T06:50:37;20.80;99.90
58339;DHT22;68636;52.704;6.536;2023-08-12T06:53:03;20.80;99.90
58339;DHT22;68636;52.704;6.536;2023-08-12T06:55:29;20.80;99.90
58339;DHT22;68636;52.704;6.536;2023-08-12T06:57:55;20.80;99.90
58339;DHT22;68636;52.704;6.536;2023-08-12T07:00:20;20.80;99.90
58339;DHT22;68636;52.704;6.536;2023-08-12T07:02:46;20.80;99.90
58339;DHT22;68636;52.704;6.536;2023-08-12T07:05:12;20.80;99.90
58339;DHT22;68636;52.704;6.536;2023-08-12T07:07:38;20.70;99.90
58339;DHT22;68636;52.704;6.536;2023-08-12T07:10:03;20.70;99.90
58339;DHT22;68636;52.704;6.536;2023-08-12T07:12:30;20.60;99.90
58339;DHT22;68636;52.704;6.536;2023-08-12T07:14:56;20.60;99.90
58339;DHT22;68636;52.704;6.536;2023-08-12T07:17:22;20.60;99.90
58339;DHT22;68636;52.704;6.536;2023-08-12T07:19:48;20.60;99.90
58339;DHT22;68636;52.704;6.536;2023-08-12T07:22:13;20.50;99.90
58339;DHT22;68636;52.704;6.536;2023-08-12T07:24:39;20.50;99.90
58339;DHT22;68636;52.704;6.536;2023-08-12T07:27:05;20.50;99.90
58339;DHT22;68636;52.704;6.536;2023-08-12T07:29:31;20.50;99.90
58339;DHT22;68636;52.704;6.536;2023-08-12T07:31:56;20.50;99.90
58339;DHT22;68636;52.704;6.536;2023-08-12T07:34:22;20.50;99.90
58339;DHT22;68636;52.704;6.536;2023-08-12T07:36:48;20.50;99.90
58339;DHT22;68636;52.704;6.536;2023-08-12T07:39:13;20.50;99.90
58339;DHT22;68636;52.704;6.536;2023-08-12T07:41:39;20.50;99.90
58339;DHT22;68636;52.704;6.536;2023-08-12T07:44:05;20.50;99.90
58339;DHT22;68636;52.704;6.536;2023-08-12T07:46:31;20.50;99.90
58339;DHT22;68636;52.704;6.536;2023-08-12T07:48:57;20.50;99.90
58339;DHT22;68636;52.704;6.536;2023-08-12T07:51:23;20.60;99.90
58339;DHT22;68636;52.704;6.536;2023-08-12T07:53:48;20.60;99.90
58339;DHT22;68636;52.704;6.536;2023-08-12T07:56:14;20.60;99.90
58339;DHT22;68636;52.704;6.536;2023-08-12T07:58:40;20.50;99.90
58339;DHT22;68636;52.704;6.536;2023-08-12T08:01:05;20.50;99.90
58339;DHT22;68636;52.704;6.536;2023-08-12T08:03:33;20.40;99.90
58339;DHT22;68636;52.704;6.536;2023-08-12T08:05:59;20.40;99.90
58339;DHT22;68636;52.704;6.536;2023-08-12T08:08:24;20.40;99.90
58339;DHT22;68636;52.704;6.536;2023-08-12T08:10:50;20.30;99.90
58339;DHT22;68636;52.704;6.536;2023-08-12T08:13:16;20.30;99.90
58339;DHT22;68636;52.704;6.536;2023-08-12T08:15:41;20.20;99.90
58339;DHT22;68636;52.704;6.536;2023-08-12T08:18:07;20.20;99.90
58339;DHT22;68636;52.704;6.536;2023-08-12T08:20:33;20.10;99.90
58339;DHT22;68636;52.704;6.536;2023-08-12T08:22:59;20.00;99.90
58339;DHT22;68636;52.704;6.536;2023-08-12T08:25:25;20.00;99.90
58339;DHT22;68636;52.704;6.536;2023-08-12T08:27:51;20.00;99.90
58339;DHT22;68636;52.704;6.536;2023-08-12T08:30:16;19.90;99.90
58339;DHT22;68636;52.704;6.536;2023-08-12T08:32:42;19.90;99.90
58339;DHT22;68636;52.704;6.536;2023-08-12T08:35:08;19.90;99.90
58339;DHT22;68636;52.704;6.536;2023-08-12T08:37:34;19.80;99.90
58339;DHT22;68636;52.704;6.536;2023-08-12T08:39:59;19.60;99.90
58339;DHT22;68636;52.704;6.536;2023-08-12T08:42:25;19.60;99.90
58339;DHT22;68636;52.704;6.536;2023-08-12T08:44:53;19.60;99.90
58339;DHT22;68636;52.704;6.536;2023-08-12T08:47:25;19.60;99.90
58339;DHT22;68636;52.704;6.536;2023-08-12T08:49:54;19.60;99.90
58339;DHT22;68636;52.704;6.536;2023-08-12T08:52:20;19.60;99.90
58339;DHT22;68636;52.704;6.536;2023-08-12T08:54:47;19.60;99.90
58339;DHT22;68636;52.704;6.536;2023-08-12T08:57:13;19.60;99.90
58339;DHT22;68636;52.704;6.536;2023-08-12T08:59:39;19.50;99.90
58339;DHT22;68636;52.704;6.536;2023-08-12T09:02:05;19.50;99.90
58339;DHT22;68636;52.704;6.536;2023-08-12T09:04:33;19.50;99.90
58339;DHT22;68636;52.704;6.536;2023-08-12T09:06:59;19.50;99.90
58339;DHT22;68636;52.704;6.536;2023-08-12T09:09:26;19.60;99.90
58339;DHT22;68636;52.704;6.536;2023-08-12T09:11:53;19.60;99.90
58339;DHT22;68636;52.704;6.536;2023-08-12T09:14:21;19.60;99.90
58339;DHT22;68636;52.704;6.536;2023-08-12T09:16:47;19.60;99.90
58339;DHT22;68636;52.704;6.536;2023-08-12T09:19:12;19.60;99.90
58339;DHT22;68636;52.704;6.536;2023-08-12T09:21:38;19.60;99.90
58339;DHT22;68636;52.704;6.536;2023-08-12T09:24:04;19.50;99.90
58339;DHT22;68636;52.704;6.536;2023-08-12T09:26:30;19.50;99.90
58339;DHT22;68636;52.704;6.536;2023-08-12T09:28:56;19.60;99.90
58339;DHT22;68636;52.704;6.536;2023-08-12T09:31:28;19.60;99.90
58339;DHT22;68636;52.704;6.536;2023-08-12T09:33:58;19.60;99.90
58339;DHT22;68636;52.704;6.536;2023-08-12T09:36:25;19.60;99.90
58339;DHT22;68636;52.704;6.536;2023-08-12T09:38:52;19.70;99.90
58339;DHT22;68636;52.704;6.536;2023-08-12T09:41:18;19.60;99.90
58339;DHT22;68636;52.704;6.536;2023-08-12T09:43:44;19.60;99.90
58339;DHT22;68636;52.704;6.536;2023-08-12T09:46:11;19.60;99.90
58339;DHT22;68636;52.704;6.536;2023-08-12T09:48:38;19.60;99.90
58339;DHT22;68636;52.704;6.536;2023-08-12T09:51:04;19.60;99.90
58339;DHT22;68636;52.704;6.536;2023-08-12T09:53:32;19.60;99.90
58339;DHT22;68636;52.704;6.536;2023-08-12T09:56:06;19.60;99.90
58339;DHT22;68636;52.704;6.536;2023-08-12T09:58:37;19.50;99.90
58339;DHT22;68636;52.704;6.536;2023-08-12T10:01:03;19.50;99.90
58339;DHT22;68636;52.704;6.536;2023-08-12T10:03:34;19.50;99.90
58339;DHT22;68636;52.704;6.536;2023-08-12T10:06:01;19.50;99.90
58339;DHT22;68636;52.704;6.536;2023-08-12T10:08:29;19.50;99.90
58339;DHT22;68636;52.704;6.536;2023-08-12T10:10:56;19.40;99.90
58339;DHT22;68636;52.704;6.536;2023-08-12T10:13:22;19.40;99.90
58339;DHT22;68636;52.704;6.536;2023-08-12T10:15:49;19.40;99.90
58339;DHT22;68636;52.704;6.536;2023-08-12T10:18:15;19.50;99.90
58339;DHT22;68636;52.704;6.536;2023-08-12T10:20:43;19.50;99.90
58339;DHT22;68636;52.704;6.536;2023-08-12T10:23:15;19.60;99.90
58339;DHT22;68636;52.704;6.536;2023-08-12T10:25:43;19.60;99.90
58339;DHT22;68636;52.704;6.536;2023-08-12T10:28:10;19.60;99.90
58339;DHT22;68636;52.704;6.536;2023-08-12T10:30:35;19.70;99.90
58339;DHT22;68636;52.704;6.536;2023-08-12T10:33:01;19.70;99.90
58339;DHT22;68636;52.704;6.536;2023-08-12T10:35:58;19.70;99.90
58339;DHT22;68636;52.704;6.536;2023-08-12T10:38:24;19.80;99.90
58339;DHT22;68636;52.704;6.536;2023-08-12T10:40:52;19.80;99.90
58339;DHT22;68636;52.704;6.536;2023-08-12T10:43:18;19.60;99.90
58339;DHT22;68636;52.704;6.536;2023-08-12T10:45:48;19.60;99.90
58339;DHT22;68636;52.704;6.536;2023-08-12T10:48:21;19.60;99.90
58339;DHT22;68636;52.704;6.536;2023-08-12T10:50:55;19.70;99.90
58339;DHT22;68636;52.704;6.536;2023-08-12T10:53:34;19.70;99.90
58339;DHT22;68636;52.704;6.536;2023-08-12T10:56:04;19.70;99.90
58339;DHT22;68636;52.704;6.536;2023-08-12T10:58:46;19.80;99.90
58339;DHT22;68636;52.704;6.536;2023-08-12T11:01:19;19.90;99.90
58339;DHT22;68636;52.704;6.536;2023-08-12T11:03:45;20.00;99.90
58339;DHT22;68636;52.704;6.536;2023-08-12T11:06:11;20.10;99.90
58339;DHT22;68636;52.704;6.536;2023-08-12T11:08:47;20.00;99.90
58339;DHT22;68636;52.704;6.536;2023-08-12T11:11:21;20.10;99.90
58339;DHT22;68636;52.704;6.536;2023-08-12T11:13:58;20.10;99.90
58339;DHT22;68636;52.704;6.536;2023-08-12T11:16:37;20.30;99.90
58339;DHT22;68636;52.704;6.536;2023-08-12T11:19:03;20.40;99.90
58339;DHT22;68636;52.704;6.536;2023-08-12T11:21:29;20.50;99.90
58339;DHT22;68636;52.704;6.536;2023-08-12T11:23:55;20.80;99.90
58339;DHT22;68636;52.704;6.536;2023-08-12T11:26:24;21.00;99.90
58339;DHT22;68636;52.704;6.536;2023-08-12T11:28:50;21.10;99.90
58339;DHT22;68636;52.704;6.536;2023-08-12T11:31:16;21.40;99.90
58339;DHT22;68636;52.704;6.536;2023-08-12T11:33:43;21.80;99.90
58339;DHT22;68636;52.704;6.536;2023-08-12T11:36:09;21.90;99.90
58339;DHT22;68636;52.704;6.536;2023-08-12T11:38:35;22.10;99.90
58339;DHT22;68636;52.704;6.536;2023-08-12T11:41:01;22.10;99.90
58339;DHT22;68636;52.704;6.536;2023-08-12T11:43:28;22.10;99.90
58339;DHT22;68636;52.704;6.536;2023-08-12T11:45:56;22.10;99.90
58339;DHT22;68636;52.704;6.536;2023-08-12T11:48:22;22.00;99.90
58339;DHT22;68636;52.704;6.536;2023-08-12T11:50:50;22.10;99.90
58339;DHT22;68636;52.704;6.536;2023-08-12T11:53:16;22.10;99.90
58339;DHT22;68636;52.704;6.536;2023-08-12T11:55:42;22.10;99.90
58339;DHT22;68636;52.704;6.536;2023-08-12T11:58:09;22.00;99.90
58339;DHT22;68636;52.704;6.536;2023-08-12T12:00:34;21.80;99.90
58339;DHT22;68636;52.704;6.536;2023-08-12T12:03:00;21.70;99.90
58339;DHT22;68636;52.704;6.536;2023-08-12T12:05:28;21.60;99.90
58339;DHT22;68636;52.704;6.536;2023-08-12T12:07:55;21.50;99.90
58339;DHT22;68636;52.704;6.536;2023-08-12T12:10:29;21.60;99.90
58339;DHT22;68636;52.704;6.536;2023-08-12T12:12:56;21.80;99.90
58339;DHT22;68636;52.704;6.536;2023-08-12T12:15:22;21.60;99.90
58339;DHT22;68636;52.704;6.536;2023-08-12T12:17:49;21.40;99.90
58339;DHT22;68636;52.704;6.536;2023-08-12T12:20:15;21.40;99.90
58339;DHT22;68636;52.704;6.536;2023-08-12T12:22:43;21.50;99.90
58339;DHT22;68636;52.704;6.536;2023-08-12T12:25:13;21.70;99.90
58339;DHT22;68636;52.704;6.536;2023-08-12T12:27:41;21.70;99.90
58339;DHT22;68636;52.704;6.536;2023-08-12T12:30:10;21.80;99.90
58339;DHT22;68636;52.704;6.536;2023-08-12T12:32:36;21.80;99.90
58339;DHT22;68636;52.704;6.536;2023-08-12T12:35:02;21.70;99.90
58339;DHT22;68636;52.704;6.536;2023-08-12T12:37:38;21.60;99.90
58339;DHT22;68636;52.704;6.536;2023-08-12T12:40:04;21.40;99.90
58339;DHT22;68636;52.704;6.536;2023-08-12T12:42:31;21.20;99.90
58339;DHT22;68636;52.704;6.536;2023-08-12T12:44:56;21.10;99.90
58339;DHT22;68636;52.704;6.536;2023-08-12T12:47:22;21.10;99.90
58339;DHT22;68636;52.704;6.536;2023-08-12T12:49:48;21.10;99.90
58339;DHT22;68636;52.704;6.536;2023-08-12T12:52:13;21.00;99.90
58339;DHT22;68636;52.704;6.536;2023-08-12T12:54:39;21.20;99.90
58339;DHT22;68636;52.704;6.536;2023-08-12T12:57:05;21.20;99.90
58339;DHT22;68636;52.704;6.536;2023-08-12T12:59:31;21.40;99.90
58339;DHT22;68636;52.704;6.536;2023-08-12T13:01:57;21.30;99.90
58339;DHT22;68636;52.704;6.536;2023-08-12T13:04:22;21.40;99.90
58339;DHT22;68636;52.704;6.536;2023-08-12T13:06:48;21.20;99.90
58339;DHT22;68636;52.704;6.536;2023-08-12T13:09:14;21.40;99.90
58339;DHT22;68636;52.704;6.536;2023-08-12T13:11:39;21.40;99.90
58339;DHT22;68636;52.704;6.536;2023-08-12T13:14:05;21.40;99.90
58339;DHT22;68636;52.704;6.536;2023-08-12T13:16:31;21.50;99.90
58339;DHT22;68636;52.704;6.536;2023-08-12T13:18:57;21.40;99.90
58339;DHT22;68636;52.704;6.536;2023-08-12T13:21:24;21.60;99.90
58339;DHT22;68636;52.704;6.536;2023-08-12T13:23:50;21.60;99.90
58339;DHT22;68636;52.704;6.536;2023-08-12T13:26:16;21.50;99.90
58339;DHT22;68636;52.704;6.536;2023-08-12T13:28:41;21.60;99.90
58339;DHT22;68636;52.704;6.536;2023-08-12T13:31:07;21.50;99.90
58339;DHT22;68636;52.704;6.536;2023-08-12T13:33:34;21.50;99.90
58339;DHT22;68636;52.704;6.536;2023-08-12T13:35:59;21.60;99.90
58339;DHT22;68636;52.704;6.536;2023-08-12T13:38:25;21.60;99.90
58339;DHT22;68636;52.704;6.536;2023-08-12T13:40:51;21.60;99.90
58339;DHT22;68636;52.704;6.536;2023-08-12T13:43:16;21.70;99.90
58339;DHT22;68636;52.704;6.536;2023-08-12T13:45:42;21.80;99.90
58339;DHT22;68636;52.704;6.536;2023-08-12T13:48:08;21.80;99.90
58339;DHT22;68636;52.704;6.536;2023-08-12T13:50:34;21.80;99.90
58339;DHT22;68636;52.704;6.536;2023-08-12T13:52:59;21.90;99.90
58339;DHT22;68636;52.704;6.536;2023-08-12T13:55:26;21.90;99.90
58339;DHT22;68636;52.704;6.536;2023-08-12T13:57:52;21.90;99.90
58339;DHT22;68636;52.704;6.536;2023-08-12T14:00:18;21.90;99.90
58339;DHT22;68636;52.704;6.536;2023-08-12T14:02:44;22.00;99.90
58339;DHT22;68636;52.704;6.536;2023-08-12T14:05:11;22.10;99.90
58339;DHT22;68636;52.704;6.536;2023-08-12T14:07:36;22.10;99.90
58339;DHT22;68636;52.704;6.536;2023-08-12T14:10:04;22.20;99.90
58339;DHT22;68636;52.704;6.536;2023-08-12T14:12:30;22.20;99.90
58339;DHT22;68636;52.704;6.536;2023-08-12T14:14:56;22.30;99.90
58339;DHT22;68636;52.704;6.536;2023-08-12T14:17:22;22.30;99.90
58339;DHT22;68636;52.704;6.536;2023-08-12T14:19:49;22.30;99.90
58339;DHT22;68636;52.704;6.536;2023-08-12T14:22:14;22.30;99.90
58339;DHT22;68636;52.704;6.536;2023-08-12T14:24:40;22.30;99.90
58339;DHT22;68636;52.704;6.536;2023-08-12T14:27:06;22.30;99.90
58339;DHT22;68636;52.704;6.536;2023-08-12T14:29:31;22.30;99.90
58339;DHT22;68636;52.704;6.536;2023-08-12T14:31:58;22.40;99.90
58339;DHT22;68636;52.704;6.536;2023-08-12T14:34:24;22.30;99.90
58339;DHT22;68636;52.704;6.536;2023-08-12T14:36:50;22.30;99.90
58339;DHT22;68636;52.704;6.536;2023-08-12T14:39:15;22.40;99.90
58339;DHT22;68636;52.704;6.536;2023-08-12T14:41:41;22.50;99.90
58339;DHT22;68636;52.704;6.536;2023-08-12T14:44:07;22.50;99.90
58339;DHT22;68636;52.704;6.536;2023-08-12T14:46:33;22.40;99.90
58339;DHT22;68636;52.704;6.536;2023-08-12T14:48:58;22.20;99.90
58339;DHT22;68636;52.704;6.536;2023-08-12T14:51:24;22.30;99.90
58339;DHT22;68636;52.704;6.536;2023-08-12T14:53:50;22.40;99.90
58339;DHT22;68636;52.704;6.536;2023-08-12T14:56:16;22.40;99.90
58339;DHT22;68636;52.704;6.536;2023-08-12T14:58:42;22.50;99.90
58339;DHT22;68636;52.704;6.536;2023-08-12T15:01:07;22.60;99.90
58339;DHT22;68636;52.704;6.536;2023-08-12T15:03:33;22.70;99.90
58339;DHT22;68636;52.704;6.536;2023-08-12T15:06:00;22.70;99.90
58339;DHT22;68636;52.704;6.536;2023-08-12T15:08:27;22.70;99.90
58339;DHT22;68636;52.704;6.536;2023-08-12T15:10:54;22.70;99.90
58339;DHT22;68636;52.704;6.536;2023-08-12T15:13:20;22.70;99.90
58339;DHT22;68636;52.704;6.536;2023-08-12T15:15:52;22.70;99.90
58339;DHT22;68636;52.704;6.536;2023-08-12T15:18:18;22.60;99.90
58339;DHT22;68636;52.704;6.536;2023-08-12T15:20:44;22.70;99.90
58339;DHT22;68636;52.704;6.536;2023-08-12T15:23:10;22.70;99.90
58339;DHT22;68636;52.704;6.536;2023-08-12T15:25:36;22.70;99.90
58339;DHT22;68636;52.704;6.536;2023-08-12T15:28:02;22.70;99.90
58339;DHT22;68636;52.704;6.536;2023-08-12T15:30:29;22.80;99.90